Time;durP1;ratioP1;P1;durP2;ratioP2;P2;SDS_P1;SDS_P2;PMS_P1;PMS_P2;Temp;Humidity;BMP_temperature;BMP_pressure;BME280_temperature;BME280_humidity;BME280_pressure;Samples;Min_cycle;Max_cycle;Signal;HPM_P1;HPM_P2
2022/09/21 00:03:41;;;;;;;5.97;3.37;;;;;4.60;97019.00;;;;8348500;28;20216;-71
2022/09/21 00:07:51;;;;;;;8.30;3.67;;;;;4.60;97016.00;;;;8360900;28;20263;-71
2022/09/21 00:12:02;;;;;;;7.23;3.50;;;;;4.60;97014.00;;;;8361868;28;20220;-70
2022/09/21 00:16:12;;;;;;;5.37;3.40;;;;;4.60;97009.00;;;;8361058;28;20300;-71
2022/09/21 00:20:23;;;;;;;6.73;3.63;;;;;4.60;97021.00;;;;8361628;28;20307;-71
2022/09/21 00:24:34;;;;;;;26.43;4.70;;;;;4.50;97007.00;;;;8361209;28;20221;-71
2022/09/21 00:28:53;;;;;;;374.20;16.97;;;;;4.50;97011.00;;;;8362171;28;20247;-71
2022/09/21 00:33:02;;;;;;;6.60;3.97;;;;;4.50;97020.00;;;;8354002;28;20244;-71
2022/09/21 00:37:12;;;;;;;9.20;4.10;;;;;4.50;97012.00;;;;8360881;28;20527;-71
2022/09/21 00:41:22;;;;;;;10.17;3.43;;;;;4.40;97021.00;;;;8340405;28;20224;-70
2022/09/21 00:45:33;;;;;;;5.93;3.93;;;;;4.30;97017.00;;;;8335888;28;20227;-70
2022/09/21 00:49:48;;;;;;;6.10;3.37;;;;;4.30;97013.00;;;;8337029;28;20250;-71
2022/09/21 00:54:04;;;;;;;8.03;3.70;;;;;4.20;97023.00;;;;8293576;28;20239;-70
2022/09/21 00:58:16;;;;;;;5.07;3.57;;;;;4.30;97012.00;;;;8342736;28;20223;-70
2022/09/21 01:02:28;;;;;;;14.17;3.73;;;;;4.30;97014.00;;;;8292041;28;20574;-70
2022/09/21 01:06:40;;;;;;;7.33;3.77;;;;;4.20;97023.00;;;;8329440;28;20240;-69
2022/09/21 01:10:58;;;;;;;26.77;4.40;;;;;4.20;97015.00;;;;8335213;28;20223;-69
2022/09/21 01:15:24;;;;;;;39.77;4.30;;;;;4.10;97021.00;;;;8307499;28;20246;-70
2022/09/21 01:19:57;;;;;;;28.03;4.67;;;;;4.00;97012.00;;;;8355500;28;20511;-70
2022/09/21 01:24:28;;;;;;;19.57;3.90;;;;;3.90;97014.00;;;;8273247;28;20340;-69
2022/09/21 01:29:05;;;;;;;14.93;3.87;;;;;3.90;97022.00;;;;8349566;28;20234;-69
2022/09/21 01:33:22;;;;;;;6.57;3.50;;;;;3.90;97019.00;;;;8317622;28;20224;-69
2022/09/21 01:37:37;;;;;;;4.77;3.00;;;;;3.90;97021.00;;;;8329875;28;20565;-69
2022/09/21 01:41:43;;;;;;;6.63;3.23;;;;;3.90;97025.00;;;;8336886;28;20312;-68
2022/09/21 01:45:58;;;;;;;3.83;2.83;;;;;3.80;97027.00;;;;8317453;28;20222;-68
2022/09/21 01:50:10;;;;;;;6.70;3.17;;;;;3.90;97036.00;;;;8334557;28;20242;-68
2022/09/21 01:54:20;;;;;;;5.57;3.23;;;;;3.90;97037.00;;;;8317080;28;20223;-67
2022/09/21 01:58:35;;;;;;;3.27;2.70;;;;;3.80;97031.00;;;;8339637;28;20672;-68
2022/09/21 02:02:51;;;;;;;3.23;2.90;;;;;3.80;97028.00;;;;8317686;28;20585;-67
2022/09/21 02:07:02;;;;;;;3.27;2.70;;;;;3.70;97029.00;;;;8330045;28;20222;-68
2022/09/21 02:11:12;;;;;;;4.47;2.80;;;;;3.70;97027.00;;;;8335099;28;20228;-67
2022/09/21 02:15:28;;;;;;;3.27;2.97;;;;;3.70;97026.00;;;;8316526;28;20223;-66
2022/09/21 02:19:46;;;;;;;3.00;2.70;;;;;3.70;97026.00;;;;8351603;28;20277;-67
2022/09/21 02:24:05;;;;;;;3.10;2.80;;;;;3.70;97026.00;;;;8303786;28;20273;-67
2022/09/21 02:28:26;;;;;;;5.57;2.67;;;;;3.70;97032.00;;;;8347233;28;20228;-66
2022/09/21 02:32:50;;;;;;;7.80;3.27;;;;;3.70;97027.00;;;;8367164;28;20573;-66
2022/09/21 02:37:09;;;;;;;7.23;2.90;;;;;3.60;97026.00;;;;8366943;28;20239;-67
2022/09/21 02:41:24;;;;;;;3.67;2.83;;;;;3.60;97027.00;;;;8370124;28;20307;-66
2022/09/21 02:45:40;;;;;;;4.37;2.57;;;;;3.60;97029.00;;;;8370034;28;20220;-66
2022/09/21 02:49:53;;;;;;;3.67;2.40;;;;;3.60;97028.00;;;;8362812;28;20227;-66
2022/09/21 02:54:08;;;;;;;3.20;2.73;;;;;3.50;97026.00;;;;8370997;28;20249;-66
2022/09/21 02:58:20;;;;;;;3.27;2.70;;;;;3.50;97034.00;;;;8379701;28;20231;-66
2022/09/21 03:02:23;;;;;;;4.07;2.83;;;;;3.50;97027.00;;;;8370860;28;20222;-66
2022/09/21 03:06:33;;;;;;;5.03;3.20;;;;;3.50;97031.00;;;;8369483;28;20561;-66
2022/09/21 03:10:39;;;;;;;5.60;3.20;;;;;3.50;97030.00;;;;8370940;27;20565;-66
2022/09/21 03:14:50;;;;;;;9.80;3.30;;;;;3.40;97028.00;;;;8370307;28;20219;-66
2022/09/21 03:19:00;;;;;;;22.40;3.77;;;;;3.40;97022.00;;;;8384874;28;20219;-66
2022/09/21 03:23:10;;;;;;;9.20;3.27;;;;;3.40;97035.00;;;;8352636;28;20235;-66
2022/09/21 03:27:15;;;;;;;8.07;3.50;;;;;3.30;97033.00;;;;8363772;28;20220;-66
2022/09/21 03:31:33;;;;;;;3.97;2.90;;;;;3.30;97040.00;;;;8364453;28;20565;-66
2022/09/21 03:35:43;;;;;;;5.43;3.13;;;;;3.30;97039.00;;;;8365593;28;20222;-65
2022/09/21 03:39:53;;;;;;;3.17;2.80;;;;;3.30;97047.00;;;;8359297;28;20230;-66
2022/09/21 03:44:03;;;;;;;6.13;3.77;;;;;3.30;97048.00;;;;8380887;28;20716;-66
2022/09/21 03:48:07;;;;;;;3.97;2.67;;;;;3.30;97045.00;;;;8378199;28;20217;-65
2022/09/21 03:52:17;;;;;;;5.53;2.97;;;;;3.20;97052.00;;;;8370361;28;20235;-65
2022/09/21 03:56:27;;;;;;;5.17;2.27;;;;;3.20;97049.00;;;;8352014;28;20230;-66
2022/09/21 04:00:39;;;;;;;3.17;2.60;;;;;3.10;97060.00;;;;8365051;28;20223;-66
2022/09/21 04:04:42;;;;;;;4.13;2.87;;;;;3.10;97056.00;;;;8383113;28;20227;-65
2022/09/21 04:08:53;;;;;;;3.97;3.00;;;;;3.10;97044.00;;;;8376307;28;20546;-66
2022/09/21 04:12:58;;;;;;;7.13;2.70;;;;;3.10;97044.00;;;;8365004;28;20717;-66
2022/09/21 04:17:10;;;;;;;3.17;2.63;;;;;3.10;97041.00;;;;8377439;28;20256;-66
2022/09/21 04:21:14;;;;;;;3.67;2.80;;;;;3.10;97050.00;;;;8360301;28;20768;-66
2022/09/21 04:25:24;;;;;;;4.13;2.57;;;;;3.10;97046.00;;;;8379031;28;20588;-65
2022/09/21 04:29:40;;;;;;;3.23;2.53;;;;;3.00;97061.00;;;;8382817;28;20593;-66
2022/09/21 04:33:52;;;;;;;4.63;3.27;;;;;3.00;97052.00;;;;8354325;28;20729;-66
2022/09/21 04:38:02;;;;;;;9.40;3.20;;;;;3.00;97052.00;;;;8384286;28;20233;-65
2022/09/21 04:42:12;;;;;;;21.03;3.50;;;;;3.00;97065.00;;;;8368470;28;20237;-65
2022/09/21 04:46:22;;;;;;;257.60;12.87;;;;;2.90;97074.00;;;;8368638;28;20233;-65
2022/09/21 04:50:33;;;;;;;8.47;3.10;;;;;2.90;97070.00;;;;8363047;28;20635;-65
2022/09/21 04:54:43;;;;;;;13.07;3.50;;;;;2.90;97075.00;;;;8382692;28;20226;-64
2022/09/21 04:58:53;;;;;;;15.70;3.73;;;;;2.80;97086.00;;;;8376189;28;20214;-64
2022/09/21 05:03:03;;;;;;;12.43;3.40;;;;;2.80;97083.00;;;;8361582;28;20236;-64
2022/09/21 05:07:14;;;;;;;6.63;3.17;;;;;2.80;97087.00;;;;8375711;28;20554;-64
2022/09/21 05:11:24;;;;;;;6.80;3.00;;;;;2.80;97104.00;;;;8362446;28;20226;-65
2022/09/21 05:15:34;;;;;;;3.70;2.80;;;;;2.80;97106.00;;;;8380813;28;20229;-64
2022/09/21 05:19:43;;;;;;;4.47;3.23;;;;;2.90;97103.00;;;;8356698;28;20227;-64
2022/09/21 05:23:47;;;;;;;4.00;2.90;;;;;2.90;97108.00;;;;8379581;28;20284;-64
2022/09/21 05:27:57;;;;;;;7.87;3.80;;;;;2.90;97108.00;;;;8381059;28;20664;-63
2022/09/21 05:32:20;;;;;;;12.97;3.70;;;;;3.00;97106.00;;;;8367366;28;20322;-63
2022/09/21 05:36:41;;;;;;;4.60;3.17;;;;;3.00;97111.00;;;;8373026;28;20221;-64
2022/09/21 05:40:49;;;;;;;4.40;3.57;;;;;3.10;97117.00;;;;8362968;28;20293;-63
2022/09/21 05:44:58;;;;;;;8.17;4.00;;;;;3.20;97123.00;;;;8380348;28;20234;-63
2022/09/21 05:49:18;;;;;;;6.30;3.67;;;;;3.30;97127.00;;;;8379297;28;20668;-63
2022/09/21 05:53:52;;;;;;;9.57;4.63;;;;;3.40;97140.00;;;;8362884;28;20237;-63
2022/09/21 05:58:09;;;;;;;27.13;13.83;;;;;3.50;97133.00;;;;8369014;28;20588;-63
2022/09/21 06:02:24;;;;;;;4.77;4.20;;;;;3.60;97138.00;;;;8374669;28;20277;-63
2022/09/21 06:06:34;;;;;;;10.23;6.40;;;;;3.80;97130.00;;;;8373607;28;20632;-63
2022/09/21 06:10:44;;;;;;;13.40;8.30;;;;;3.90;97136.00;;;;8367868;28;20223;-63
2022/09/21 06:14:55;;;;;;;5.47;4.03;;;;;4.00;97140.00;;;;8386701;28;20250;-63
2022/09/21 06:19:05;;;;;;;4.17;3.77;;;;;4.10;97142.00;;;;8386454;28;20264;-63
2022/09/21 06:23:15;;;;;;;7.87;4.90;;;;;4.20;97136.00;;;;8365050;28;20231;-63
2022/09/21 06:27:18;;;;;;;7.70;5.53;;;;;4.50;97143.00;;;;8381599;28;20250;-63
2022/09/21 06:31:29;;;;;;;11.93;6.63;;;;;4.70;97147.00;;;;8359783;28;20224;-63
2022/09/21 06:35:39;;;;;;;10.17;6.50;;;;;5.00;97144.00;;;;8384502;28;20691;-64
2022/09/21 06:39:49;;;;;;;12.63;7.00;;;;;5.20;97154.00;;;;8344172;28;20262;-64
2022/09/21 06:43:54;;;;;;;16.58;9.95;;;;;5.60;97143.00;;;;8382764;28;20446;-63
2022/09/21 06:48:05;;;;;;;8.87;5.10;;;;;6.10;97147.00;;;;8380294;28;20212;-63
2022/09/21 06:52:15;;;;;;;6.47;5.10;;;;;6.30;97147.00;;;;8370414;28;20220;-63
2022/09/21 06:56:25;;;;;;;7.37;4.70;;;;;6.50;97140.00;;;;8372149;28;20704;-63
2022/09/21 07:00:35;;;;;;;10.67;6.00;;;;;6.80;97148.00;;;;8363849;28;20272;-63
2022/09/21 07:04:46;;;;;;;14.80;6.33;;;;;7.00;97149.00;;;;8385365;28;20251;-63
2022/09/21 07:08:56;;;;;;;10.50;5.27;;;;;7.40;97156.00;;;;8378040;28;20239;-64
2022/09/21 07:13:26;;;;;;;9.63;4.67;;;;;7.70;97161.00;;;;8362315;28;20216;-65
2022/09/21 07:17:38;;;;;;;7.97;4.20;;;;;7.90;97148.00;;;;8378062;28;20220;-67
2022/09/21 07:21:55;;;;;;;9.20;4.47;;;;;8.10;97157.00;;;;8357139;28;20685;-68
2022/09/21 07:26:07;;;;;;;4.03;3.30;;;;;8.30;97157.00;;;;8378320;28;20323;-68
2022/09/21 07:30:23;;;;;;;7.20;3.63;;;;;8.50;97161.00;;;;8365458;28;20360;-69
2022/09/21 07:34:42;;;;;;;8.23;3.87;;;;;8.70;97160.00;;;;8383677;28;20228;-67
2022/09/21 07:38:53;;;;;;;7.03;3.93;;;;;8.90;97166.00;;;;8376778;28;20216;-69
2022/09/21 07:43:03;;;;;;;4.57;3.08;;;;;9.00;97165.00;;;;8364949;28;20223;-68
2022/09/21 07:47:13;;;;;;;6.13;3.93;;;;;9.20;97162.00;;;;8377725;28;20650;-68
2022/09/21 07:51:23;;;;;;;6.90;3.78;;;;;9.40;97155.00;;;;8379660;28;20228;-67
2022/09/21 07:55:34;;;;;;;7.15;4.18;;;;;9.60;97168.00;;;;8383100;28;20226;-67
2022/09/21 07:59:37;;;;;;;6.70;3.10;;;;;9.80;97159.00;;;;8383203;28;20565;-67
2022/09/21 08:03:49;;;;;;;6.72;3.38;;;;;10.10;97174.00;;;;8346455;28;20222;-67
2022/09/21 08:07:59;;;;;;;4.10;3.20;;;;;10.30;97179.00;;;;8373343;28;20212;-67
2022/09/21 08:12:10;;;;;;;4.20;3.10;;;;;10.50;97176.00;;;;8370593;28;20684;-67
2022/09/21 08:16:20;;;;;;;5.30;3.03;;;;;10.70;97182.00;;;;8353718;28;20302;-66
2022/09/21 08:20:30;;;;;;;5.38;2.95;;;;;10.80;97175.00;;;;8363465;28;20230;-67
2022/09/21 08:24:44;;;;;;;4.05;3.20;;;;;10.80;97188.00;;;;8377244;28;20679;-67
2022/09/21 08:28:50;;;;;;;3.63;2.83;;;;;10.90;97190.00;;;;8374106;28;20218;-67
2022/09/21 08:33:07;;;;;;;5.47;3.13;;;;;11.20;97192.00;;;;8361153;28;20272;-66
2022/09/21 08:37:18;;;;;;;7.03;3.28;;;;;11.50;97193.00;;;;8376341;28;20673;-66
2022/09/21 08:41:45;;;;;;;3.38;2.70;;;;;12.00;97198.00;;;;8361014;28;20223;-66
2022/09/21 08:45:49;;;;;;;3.10;2.80;;;;;12.20;97199.00;;;;8381958;28;20230;-67
2022/09/21 08:50:03;;;;;;;5.00;3.10;;;;;12.50;97198.00;;;;8355807;28;20741;-67
2022/09/21 08:54:17;;;;;;;3.42;3.10;;;;;12.80;97193.00;;;;8382101;28;20222;-66
2022/09/21 08:58:28;;;;;;;3.30;3.00;;;;;13.10;97196.00;;;;8375989;28;20223;-66
2022/09/21 09:02:55;;;;;;;3.22;2.92;;;;;13.50;97195.00;;;;8360536;28;20222;-67
2022/09/21 09:07:17;;;;;;;2.92;2.60;;;;;14.50;97194.00;;;;8376135;28;20235;-66
2022/09/21 09:11:41;;;;;;;3.17;2.90;;;;;15.50;97198.00;;;;8360162;28;20222;-66
2022/09/21 09:16:14;;;;;;;4.68;2.65;;;;;15.90;97202.00;;;;8380645;28;20215;-64
2022/09/21 09:20:30;;;;;;;5.13;2.85;;;;;16.00;97198.00;;;;8359997;28;20224;-66
2022/09/21 09:24:39;;;;;;;3.88;3.13;;;;;16.30;97192.00;;;;8375113;28;20232;-66
2022/09/21 09:28:52;;;;;;;6.07;3.83;;;;;16.40;97195.00;;;;8375065;28;20219;-67
2022/09/21 09:33:15;;;;;;;4.20;3.22;;;;;16.60;97195.00;;;;8340680;28;20244;-64
2022/09/21 09:37:32;;;;;;;4.95;3.03;;;;;16.70;97197.00;;;;8349155;28;20546;-66
2022/09/21 09:41:58;;;;;;;4.78;3.38;;;;;16.80;97196.00;;;;8336277;28;20228;-66
2022/09/21 09:46:20;;;;;;;4.38;3.30;;;;;16.70;97188.00;;;;8349165;28;20224;-66
2022/09/21 09:50:33;;;;;;;3.97;3.33;;;;;16.70;97198.00;;;;8335421;28;20257;-66
2022/09/21 09:54:45;;;;;;;5.75;3.10;;;;;16.80;97187.00;;;;8354555;28;20283;-66
2022/09/21 09:58:58;;;;;;;2.80;2.60;;;;;17.00;97185.00;;;;8347892;28;20228;-66
2022/09/21 10:03:17;;;;;;;3.25;2.70;;;;;17.10;97190.00;;;;8334789;28;20274;-66
2022/09/21 10:07:35;;;;;;;3.58;2.63;;;;;17.20;97192.00;;;;8347872;28;20232;-66
2022/09/21 10:11:40;;;;;;;4.40;3.13;;;;;17.10;97188.00;;;;8335388;28;20221;-66
2022/09/21 10:15:51;;;;;;;2.80;2.50;;;;;17.30;97185.00;;;;8352049;28;22805;-66
2022/09/21 10:20:02;;;;;;;2.53;2.30;;;;;17.40;97190.00;;;;8328812;28;20223;-67
2022/09/21 10:24:21;;;;;;;5.25;2.28;;;;;17.00;97183.00;;;;8298162;28;20629;-67
2022/09/21 10:28:26;;;;;;;3.55;3.08;;;;;16.70;97176.00;;;;8347547;28;20221;-67
2022/09/21 10:32:55;;;;;;;2.60;2.40;;;;;16.60;97171.00;;;;8343574;28;20224;-66
2022/09/21 10:37:26;;;;;;;4.53;2.33;;;;;16.60;97169.00;;;;8379990;28;20232;-66
2022/09/21 10:41:37;;;;;;;4.10;2.65;;;;;16.90;97176.00;;;;8370586;28;20223;-67
2022/09/21 10:45:54;;;;;;;2.00;1.90;;;;;17.00;97173.00;;;;8367215;28;20574;-67
2022/09/21 10:50:07;;;;;;;2.28;1.80;;;;;16.80;97173.00;;;;8374116;28;20254;-67
2022/09/21 10:54:22;;;;;;;1.98;1.88;;;;;16.20;97170.00;;;;8385123;28;20226;-66
2022/09/21 10:58:33;;;;;;;1.80;1.70;;;;;16.00;97163.00;;;;8380930;28;20216;-67
2022/09/21 11:02:46;;;;;;;3.22;1.95;;;;;15.60;97165.00;;;;8370299;28;20216;-67
2022/09/21 11:06:53;;;;;;;2.30;2.10;;;;;15.10;97167.00;;;;8370557;28;20220;-67
2022/09/21 11:11:25;;;;;;;2.28;2.08;;;;;14.70;97168.00;;;;8368196;28;20262;-67
2022/09/21 11:15:43;;;;;;;2.40;2.00;;;;;14.80;97162.00;;;;8369125;28;20220;-67
2022/09/21 11:20:05;;;;;;;2.50;2.38;;;;;15.10;97162.00;;;;8375526;28;20223;-69
2022/09/21 11:24:25;;;;;;;2.30;2.10;;;;;15.20;97167.00;;;;8368956;28;20588;-69
2022/09/21 11:28:40;;;;;;;2.65;2.28;;;;;15.10;97163.00;;;;8378709;28;20219;-67
2022/09/21 11:33:05;;;;;;;4.82;2.05;;;;;15.50;97159.00;;;;8367361;28;20255;-66
2022/09/21 11:37:27;;;;;;;2.00;1.90;;;;;15.70;97157.00;;;;8363536;28;20236;-67
2022/09/21 11:41:48;;;;;;;2.97;1.85;;;;;16.20;97150.00;;;;8368779;28;20215;-66
2022/09/21 11:46:09;;;;;;;1.77;1.67;;;;;16.20;97149.00;;;;8383239;28;20680;-66
2022/09/21 11:50:34;;;;;;;3.08;1.70;;;;;15.90;97152.00;;;;8372736;28;20669;-66
2022/09/21 11:54:59;;;;;;;1.60;1.50;;;;;15.90;97141.00;;;;8382829;28;20227;-66
2022/09/21 11:59:13;;;;;;;1.83;1.60;;;;;16.10;97140.00;;;;8384034;28;20653;-66
2022/09/21 12:03:49;;;;;;;1.67;1.60;;;;;16.30;97147.00;;;;8378577;28;20660;-66
2022/09/21 12:08:07;;;;;;;1.80;1.70;;;;;16.30;97138.00;;;;8399165;28;20212;-66
2022/09/21 12:12:22;;;;;;;1.98;1.52;;;;;16.40;97134.00;;;;8372580;28;20228;-66
2022/09/21 12:16:38;;;;;;;1.50;1.40;;;;;16.30;97135.00;;;;8356373;28;20649;-66
2022/09/21 12:20:55;;;;;;;1.75;1.65;;;;;16.40;97125.00;;;;8363808;28;20227;-66
2022/09/21 12:25:03;;;;;;;1.67;1.60;;;;;16.70;97134.00;;;;8382210;28;20246;-66
2022/09/21 12:29:18;;;;;;;1.50;1.40;;;;;16.90;97125.00;;;;8382603;28;20232;-65
2022/09/21 12:33:44;;;;;;;1.60;1.50;;;;;16.60;97126.00;;;;8366306;28;20753;-66
2022/09/21 12:37:50;;;;;;;1.50;1.42;;;;;16.30;97124.00;;;;8368932;28;20223;-66
2022/09/21 12:42:03;;;;;;;4.82;1.70;;;;;16.10;97121.00;;;;8364516;28;20220;-66
2022/09/21 12:46:18;;;;;;;3.50;1.45;;;;;16.00;97122.00;;;;8373522;28;20232;-66
2022/09/21 12:50:32;;;;;;;1.77;1.50;;;;;16.00;97122.00;;;;8363198;28;20227;-66
2022/09/21 12:54:44;;;;;;;1.45;1.38;;;;;16.00;97118.00;;;;8381893;28;20712;-66
2022/09/21 12:59:06;;;;;;;1.20;1.20;;;;;16.00;97125.00;;;;8375828;28;20231;-66
2022/09/21 13:03:18;;;;;;;1.40;1.40;;;;;16.00;97120.00;;;;8363709;28;20748;-65
2022/09/21 13:07:51;;;;;;;1.42;1.33;;;;;16.00;97121.00;;;;8383054;28;20235;-65
2022/09/21 13:12:06;;;;;;;2.22;1.40;;;;;16.20;97120.00;;;;8363841;28;20668;-65
2022/09/21 13:16:25;;;;;;;4.05;1.55;;;;;16.50;97101.00;;;;8383286;28;20716;-66
2022/09/21 13:20:40;;;;;;;2.17;1.60;;;;;17.00;97101.00;;;;8369435;28;20223;-65
2022/09/21 13:24:44;;;;;;;1.90;1.52;;;;;17.50;97110.00;;;;8388527;28;20635;-66
2022/09/21 13:29:03;;;;;;;1.60;1.50;;;;;17.80;97101.00;;;;8381859;28;20224;-65
2022/09/21 13:33:32;;;;;;;1.60;1.50;;;;;18.00;97096.00;;;;8369800;28;20228;-65
2022/09/21 13:37:43;;;;;;;1.88;1.70;;;;;18.20;97095.00;;;;8374612;28;20223;-65
2022/09/21 13:41:46;;;;;;;1.40;1.30;;;;;18.30;97094.00;;;;8368274;28;20231;-65
2022/09/21 13:46:48;;;;;;;1.20;1.20;;;;;18.40;97092.00;;;;8382448;28;20557;-65
2022/09/21 13:51:07;;;;;;;1.70;1.60;;;;;18.60;97088.00;;;;8368759;28;20220;-65
2022/09/21 13:55:27;;;;;;;1.55;1.42;;;;;18.80;97084.00;;;;8369975;28;20226;-65
2022/09/21 13:59:33;;;;;;;1.60;1.50;;;;;19.10;97092.00;;;;8386903;28;20224;-65
2022/09/21 14:03:46;;;;;;;1.67;1.40;;;;;19.00;97087.00;;;;8353227;28;20220;-65
2022/09/21 14:07:59;;;;;;;1.50;1.40;;;;;18.70;97094.00;;;;8387297;28;20250;-65
2022/09/21 14:12:19;;;;;;;1.40;1.40;;;;;18.40;97098.00;;;;8374382;28;20662;-65
2022/09/21 14:17:03;;;;;;;1.77;1.67;;;;;17.80;97092.00;;;;8373110;28;20735;-65
2022/09/21 14:21:22;;;;;;;1.60;1.50;;;;;17.60;97088.00;;;;8368193;28;20258;-65
2022/09/21 14:25:50;;;;;;;1.50;1.40;;;;;17.30;97088.00;;;;8386447;28;20220;-65
2022/09/21 14:30:04;;;;;;;2.80;1.75;;;;;16.90;97078.00;;;;8362570;28;20240;-65
2022/09/21 14:34:22;;;;;;;1.60;1.50;;;;;16.50;97079.00;;;;8385540;28;20232;-65
2022/09/21 14:38:39;;;;;;;2.63;1.60;;;;;16.50;97080.00;;;;8380502;28;20604;-65
2022/09/21 14:42:49;;;;;;;1.77;1.67;;;;;16.90;97077.00;;;;8343577;28;20219;-65
2022/09/21 14:47:19;;;;;;;1.73;1.63;;;;;17.20;97076.00;;;;8385246;28;20224;-65
2022/09/21 14:51:39;;;;;;;3.70;1.50;;;;;17.30;97078.00;;;;8367487;28;20216;-65
2022/09/21 14:56:02;;;;;;;1.88;1.77;;;;;17.40;97074.00;;;;8377580;28;20258;-65
2022/09/21 15:00:22;;;;;;;1.50;1.45;;;;;17.50;97075.00;;;;8366756;28;20262;-65
2022/09/21 15:04:51;;;;;;;1.25;1.15;;;;;17.50;97070.00;;;;8385466;28;20231;-66
2022/09/21 15:14:28;;;;;;;1.52;1.42;;;;;17.50;97057.00;;;;8358005;28;20223;-65
2022/09/21 15:18:41;;;;;;;2.83;1.80;;;;;17.50;97053.00;;;;8217521;28;20223;-65
2022/09/21 15:22:55;;;;;;;2.42;1.70;;;;;17.60;97048.00;;;;8201897;28;20679;-65
2022/09/21 15:27:09;;;;;;;1.60;1.50;;;;;17.90;97043.00;;;;8199659;28;20262;-65
2022/09/21 15:31:32;;;;;;;1.83;1.60;;;;;18.00;97049.00;;;;8201729;28;20725;-65
2022/09/21 15:35:53;;;;;;;1.33;1.33;;;;;18.00;97046.00;;;;8219307;28;20699;-65
2022/09/21 15:40:07;;;;;;;1.40;1.33;;;;;17.80;97047.00;;;;8199778;28;20239;-65
2022/09/21 15:44:21;;;;;;;1.58;1.50;;;;;17.70;97043.00;;;;8217777;28;20223;-65
2022/09/21 15:48:26;;;;;;;1.30;1.30;;;;;17.80;97049.00;;;;8211648;28;20310;-66
2022/09/21 15:52:42;;;;;;;5.53;1.52;;;;;17.90;97045.00;;;;8291937;28;20283;-66
2022/09/21 15:56:54;;;;;;;1.77;1.40;;;;;17.80;97043.00;;;;8349027;28;20236;-67
2022/09/21 16:01:11;;;;;;;1.60;1.50;;;;;17.90;97047.00;;;;8331212;28;20221;-66
2022/09/21 16:05:23;;;;;;;1.77;1.60;;;;;17.60;97042.00;;;;8349535;28;20312;-66
2022/09/21 16:09:41;;;;;;;3.03;2.33;;;;;17.20;97042.00;;;;8340953;28;20221;-66
2022/09/21 16:18:34;;;;;;;2.13;1.50;;;;;16.40;97048.00;;;;8344061;28;20231;-66
2022/09/21 16:23:05;;;;;;;1.40;1.40;;;;;16.10;97052.00;;;;8331508;28;20245;-66
2022/09/21 16:27:24;;;;;;;2.38;1.40;;;;;15.80;97051.00;;;;8342466;28;20286;-66
2022/09/21 16:31:36;;;;;;;1.20;1.20;;;;;15.60;97051.00;;;;8338162;28;20666;-66
2022/09/21 16:35:52;;;;;;;1.13;1.13;;;;;15.40;97062.00;;;;8374993;28;20216;-66
2022/09/21 16:40:02;;;;;;;1.83;1.30;;;;;15.20;97068.00;;;;8363839;28;20228;-66
2022/09/21 16:44:15;;;;;;;2.83;1.40;;;;;15.00;97063.00;;;;8381724;28;20307;-66
2022/09/21 16:48:26;;;;;;;1.23;1.23;;;;;14.80;97056.00;;;;8375950;28;20235;-66
2022/09/21 16:52:36;;;;;;;2.10;1.27;;;;;14.50;97060.00;;;;8362970;28;20220;-66
2022/09/21 16:56:46;;;;;;;2.72;1.45;;;;;14.30;97058.00;;;;8371161;28;20316;-67
2022/09/21 17:00:53;;;;;;;5.05;1.65;;;;;14.10;97054.00;;;;8353102;28;20273;-66
2022/09/21 17:05:05;;;;;;;2.63;1.40;;;;;13.80;97055.00;;;;8369446;28;20321;-67
2022/09/21 17:09:20;;;;;;;1.92;1.67;;;;;13.50;97049.00;;;;8389758;28;20273;-66
2022/09/21 17:13:32;;;;;;;1.50;1.50;;;;;13.10;97052.00;;;;8359888;28;20219;-66
2022/09/21 17:17:42;;;;;;;2.58;1.83;;;;;12.80;97051.00;;;;8366311;28;20246;-66
2022/09/21 17:21:53;;;;;;;2.47;2.00;;;;;12.50;97056.00;;;;8362237;28;20225;-67
2022/09/21 17:25:56;;;;;;;4.43;1.90;;;;;12.20;97059.00;;;;8380813;28;20223;-65
2022/09/21 17:30:12;;;;;;;4.45;2.17;;;;;11.90;97068.00;;;;8362166;28;20229;-65
2022/09/21 17:34:33;;;;;;;3.38;2.13;;;;;11.60;97069.00;;;;8382026;28;20231;-65
2022/09/21 17:38:44;;;;;;;4.15;2.65;;;;;11.30;97067.00;;;;8376168;28;20215;-65
2022/09/21 17:43:02;;;;;;;10.90;6.32;;;;;11.10;97065.00;;;;8362346;28;20220;-65
2022/09/21 17:47:19;;;;;;;7.97;4.97;;;;;10.90;97072.00;;;;8375087;28;20224;-66
2022/09/21 17:55:53;;;;;;;3.47;3.15;;;;;10.40;97080.00;;;;8378427;28;20238;-66
2022/09/21 18:00:12;;;;;;;2.42;2.22;;;;;10.30;97084.00;;;;8369374;28;20617;-65
2022/09/21 18:04:22;;;;;;;2.65;2.45;;;;;10.20;97078.00;;;;8387173;28;20316;-65
2022/09/21 18:08:34;;;;;;;3.30;2.95;;;;;10.10;97083.00;;;;8381382;28;20345;-66
2022/09/21 18:13:15;;;;;;;2.65;2.10;;;;;10.00;97088.00;;;;8367727;28;20569;-66
2022/09/21 18:17:47;;;;;;;4.70;2.40;;;;;9.70;97084.00;;;;8372350;28;20216;-66
2022/09/21 18:22:01;;;;;;;3.15;2.65;;;;;9.60;97077.00;;;;8367565;28;20225;-66
2022/09/21 18:26:05;;;;;;;3.30;2.45;;;;;9.40;97072.00;;;;8380874;28;20222;-67
2022/09/21 18:30:17;;;;;;;2.90;2.70;;;;;9.40;97079.00;;;;8367255;28;20224;-67
2022/09/21 18:34:54;;;;;;;4.13;2.70;;;;;9.20;97086.00;;;;8385673;28;20224;-66
2022/09/21 18:39:15;;;;;;;2.83;2.60;;;;;9.10;97082.00;;;;8382375;28;20243;-66
2022/09/21 18:43:33;;;;;;;3.58;2.72;;;;;9.00;97082.00;;;;8367424;28;20238;-65
2022/09/21 18:47:52;;;;;;;3.20;2.88;;;;;8.90;97084.00;;;;8370576;28;20231;-65
2022/09/21 18:52:10;;;;;;;3.40;2.63;;;;;8.70;97092.00;;;;8368850;28;20243;-65
2022/09/21 18:56:20;;;;;;;4.43;2.67;;;;;8.60;97090.00;;;;8379755;28;20224;-65
2022/09/21 19:00:33;;;;;;;5.33;3.50;;;;;8.60;97078.00;;;;8366092;28;20696;-65
2022/09/21 19:04:44;;;;;;;5.73;3.70;;;;;8.50;97076.00;;;;8384133;28;20220;-65
2022/09/21 19:09:02;;;;;;;10.83;4.40;;;;;8.40;97083.00;;;;8378824;28;20212;-66
2022/09/21 19:13:34;;;;;;;6.53;3.90;;;;;8.40;97075.00;;;;8366704;28;20220;-66
2022/09/21 19:17:54;;;;;;;6.73;5.97;;;;;8.30;97071.00;;;;8364523;28;20227;-66
2022/09/21 19:22:13;;;;;;;15.13;9.93;;;;;8.30;97074.00;;;;8370526;28;20220;-66
2022/09/21 19:26:28;;;;;;;10.00;6.37;;;;;8.20;97082.00;;;;8370907;28;20281;-66
2022/09/21 19:30:31;;;;;;;8.87;4.80;;;;;8.20;97076.00;;;;8365632;28;20231;-66
2022/09/21 19:34:48;;;;;;;6.03;4.03;;;;;8.10;97071.00;;;;8383999;28;20623;-66
2022/09/21 19:39:00;;;;;;;7.67;3.57;;;;;8.00;97076.00;;;;8354935;28;20212;-66
2022/09/21 19:43:20;;;;;;;3.70;3.00;;;;;7.80;97078.00;;;;8365236;28;20227;-66
2022/09/21 19:47:30;;;;;;;6.73;4.17;;;;;7.80;97077.00;;;;8378459;28;20223;-67
2022/09/21 19:51:45;;;;;;;11.70;5.20;;;;;7.70;97062.00;;;;8364940;28;20216;-67
2022/09/21 20:00:25;;;;;;;6.47;3.50;;;;;7.50;97077.00;;;;8365297;28;20572;-66
2022/09/21 20:04:39;;;;;;;5.43;3.70;;;;;7.40;97070.00;;;;8383113;28;20220;-67
2022/09/21 20:08:54;;;;;;;7.80;3.87;;;;;7.30;97072.00;;;;8369176;28;20232;-66
2022/09/21 20:13:32;;;;;;;6.10;4.10;;;;;7.30;97064.00;;;;8363987;28;20224;-67
2022/09/21 20:17:48;;;;;;;5.37;3.20;;;;;7.20;97076.00;;;;8373672;28;20216;-67
2022/09/21 20:22:03;;;;;;;7.70;4.53;;;;;7.10;97067.00;;;;8368702;28;20277;-66
2022/09/21 20:26:22;;;;;;;5.77;4.40;;;;;7.10;97066.00;;;;8377643;28;20616;-67
2022/09/21 20:30:36;;;;;;;6.77;3.93;;;;;7.00;97064.00;;;;8363728;28;20632;-67
2022/09/21 20:34:52;;;;;;;10.23;4.43;;;;;6.90;97066.00;;;;8350908;28;20582;-66
2022/09/21 20:38:56;;;;;;;7.33;4.30;;;;;6.80;97073.00;;;;8343349;28;20673;-67
2022/09/21 20:43:06;;;;;;;5.80;3.40;;;;;6.80;97073.00;;;;8330891;28;20224;-67
2022/09/21 20:47:11;;;;;;;7.83;4.30;;;;;6.70;97070.00;;;;8344013;28;20225;-67
2022/09/21 20:51:21;;;;;;;7.30;3.73;;;;;6.70;97077.00;;;;8330277;28;20247;-66
2022/09/21 20:55:31;;;;;;;7.77;4.40;;;;;6.60;97077.00;;;;8348959;28;20266;-66
2022/09/21 20:59:41;;;;;;;5.40;3.90;;;;;6.60;97080.00;;;;8339920;28;20220;-67
2022/09/21 21:04:00;;;;;;;6.37;3.73;;;;;6.50;97079.00;;;;8350058;28;20228;-66
2022/09/21 21:08:03;;;;;;;7.10;4.03;;;;;6.40;97082.00;;;;8342927;28;20225;-66
2022/09/21 21:12:15;;;;;;;5.97;4.40;;;;;6.40;97092.00;;;;8335808;28;20570;-66
2022/09/21 21:16:25;;;;;;;8.40;4.80;;;;;6.30;97084.00;;;;8336151;28;20221;-66
2022/09/21 21:20:38;;;;;;;7.17;3.90;;;;;6.30;97085.00;;;;8330098;28;20310;-65
2022/09/21 21:24:41;;;;;;;10.87;3.87;;;;;6.30;97088.00;;;;8348148;28;20250;-66
2022/09/21 21:28:51;;;;;;;6.77;4.13;;;;;6.30;97086.00;;;;8348873;28;20665;-65
2022/09/21 21:33:01;;;;;;;6.17;4.50;;;;;6.30;97082.00;;;;8336839;28;20224;-65
2022/09/21 21:37:20;;;;;;;8.90;5.57;;;;;6.20;97080.00;;;;8349620;28;20220;-66
2022/09/21 21:41:23;;;;;;;6.97;4.67;;;;;6.10;97065.00;;;;8336419;28;20239;-65